Latest Coastal Weather Observations for St Helens

IDT60701

Issued at 1:22 pm EST Tuesday 22 August 2017 (issued every 10 minutes, with the page automatically refreshed every 10 minutes)

About coastal observations | Map of coastal stations | Coastal observations for TAS | Marine services | Other Formats
Station Details ID: 092120 Name: ST HELENS AERODROME Lat: -41.34 Lon: 148.28 Height: 48.0 m
Data from the previous 72 hours. | See also: Recent months at St Helens
Date/Time
EST
Temp
°C
Wind Pressure Rain since
9am
mm
Weather Cloud Vis
km
Sea
Height
m
Swell
Dir  Spd
kts
Gust
kts
hPa Trend Height
m
Period
s
Dir
22/01:00pm 13.2 W 10 18 1013.7 - 0.0 - Partly cloudy 10 - - - -
22/12:30pm 14.3 W 9 18 1013.8 - 0.0 - Partly cloudy 10 - - - -
22/12:00pm 13.7 W 8 18 1014.3 - 0.0 - Partly cloudy 10 - - - -
22/11:30am 12.7 WSW 7 13 1014.7 - 0.0 - Partly cloudy 10 - - - -
22/11:00am 12.8 W 7 14 1014.9 - 0.0 - Partly cloudy 10 - - - -
22/10:30am 13.2 WNW 6 11 1014.8 - 0.0 - - 10 - - - -
22/10:00am 11.9 NNW 5 8 1015.0 - 0.0 - - 10 - - - -
22/09:30am 10.2 NNW 5 7 1015.3 - 0.0 - - 10 - - - -
22/09:00am 8.3 NW 2 4 1015.5 - 0.0 - - 10 - - - -
22/08:30am 7.0 WNW 2 4 1015.5 - 0.0 - - 10 - - - -
22/08:00am 4.7 NNW 4 6 1015.4 - 0.0 - - 10 - - - -
22/07:30am 4.5 WNW 3 5 1015.3 - 0.0 - - 10 - - - -
22/07:00am 3.5 WNW 3 5 1015.1 - 0.0 - - 10 - - - -
22/06:30am 3.1 NNW 3 5 1014.9 - 0.0 - - 10 - - - -
22/06:00am 3.0 W 2 6 1015.0 - 0.0 - Mostly clear 10 - - - -
22/05:30am 3.1 W 3 5 1014.9 - 0.0 - Partly cloudy 10 - - - -
22/05:00am 2.7 NW 2 4 1014.9 - 0.0 - Partly cloudy 10 - - - -
22/04:30am 2.6 N 4 6 1014.7 - 0.0 - - 10 - - - -
22/04:00am 2.3 NNW 4 6 1014.7 - 0.0 - - 10 - - - -
22/03:30am 1.6 NW 1 3 1014.9 - 0.0 - - 10 - - - -
22/03:00am 2.1 WNW 2 5 1014.9 - 0.0 - - 10 - - - -
22/02:30am 3.4 WNW 3 5 1014.9 - 0.0 - - 10 - - - -
22/02:00am 3.6 NNW 5 7 1015.1 - 0.0 - - 10 - - - -
22/01:30am 3.6 W 4 6 1015.4 - 0.0 - - 10 - - - -
22/01:00am 3.8 NW 3 5 1015.3 - 0.0 - - 10 - - - -
22/12:30am 4.5 W 3 6 1015.2 - 0.0 - - 10 - - - -
22/12:00am 5.4 WNW 5 8 1015.6 - 0.0 - - 10 - - - -
 
Date/Time
EST
Temp
°C
Wind Pressure Rain since
9am
mm
Weather Cloud Vis
km
Sea
Height
m
Swell
Dir  Spd
kts
Gust
kts
hPa Trend Height
m
Period
s
Dir
21/11:30pm 5.3 W 3 7 1015.7 - 0.0 - - 10 - - - -
21/11:00pm 5.2 W 4 6 1015.7 - 0.0 - - 10 - - - -
21/10:30pm 5.7 WNW 4 6 1015.8 - 0.0 - - 10 - - - -
21/10:00pm 6.2 W 4 7 1015.8 - 0.0 - - 10 - - - -
21/09:30pm 6.1 W 4 8 1016.0 - 0.0 - - 10 - - - -
21/09:00pm 6.4 NW 5 7 1015.9 - 0.0 - - 10 - - - -
21/08:30pm 7.0 WNW 6 9 1015.6 - 0.0 - - 10 - - - -
21/08:00pm 7.2 NW 6 8 1015.3 - 0.0 - - 10 - - - -
21/07:30pm 7.5 W 5 10 1015.0 - 0.0 - - 10 - - - -
21/07:00pm 7.8 WNW 5 8 1014.8 - 0.0 - - 10 - - - -
21/06:30pm 8.2 WNW 5 8 1014.6 - 0.0 - - 10 - - - -
21/06:00pm 8.5 NW 7 9 1014.5 - 0.0 - - 10 - - - -
21/05:30pm 9.3 NW 7 10 1014.4 - 0.0 - - 10 - - - -
21/05:00pm 10.1 WNW 6 11 1014.3 - 0.0 - - 10 - - - -
21/04:30pm 10.9 W 5 9 1014.3 - 0.0 - - 10 - - - -
21/04:00pm 11.4 WNW 6 9 1014.2 - 0.0 - Partly cloudy 10 - - - -
21/03:30pm 12.1 W 6 10 1014.2 - 0.0 - Partly cloudy 10 - - - -
21/03:00pm 12.1 WNW 7 12 1014.2 - 0.0 - Partly cloudy 10 - - - -
21/02:30pm 11.3 WNW 6 10 1014.2 - 0.0 - Partly cloudy 10 - - - -
21/02:00pm 11.5 W 7 13 1014.3 - 0.0 - Partly cloudy 10 - - - -
21/01:30pm 11.2 NNW 8 14 1014.5 - 0.0 - Partly cloudy 10 - - - -
21/01:00pm 12.3 NW 7 11 1014.6 - 0.0 - Partly cloudy 10 - - - -
21/12:30pm 13.0 W 5 9 1014.9 - 0.0 - Partly cloudy 10 - - - -
21/12:00pm 11.6 NW 7 10 1015.5 - 0.0 - Mostly clear 10 - - - -
21/11:30am 11.0 NNW 5 8 1015.8 - 0.0 - - 10 - - - -
21/11:00am 11.0 N 6 8 1016.0 - 0.0 - - 10 - - - -
21/10:30am 10.1 NW 4 6 1016.3 - 0.0 - - 10 - - - -
21/10:00am 8.3 CALM 0 2 1016.5 - 0.0 - - 10 - - - -
21/09:30am 7.6 NW 4 6 1016.8 - 0.0 - - 10 - - - -
21/09:00am 6.1 CALM 0 3 1017.0 - 0.0 Fine Mostly cloudy 25 - - - -
21/08:30am 4.7 N 4 5 1017.1 - 0.0 - - 10 - - - -
21/08:00am 3.5 NNW 7 8 1017.0 - 0.0 - - 10 - - - -
21/07:30am 3.1 NNW 7 8 1016.8 - 0.0 - Partly cloudy 10 - - - -
21/07:00am 2.6 NNW 7 9 1016.7 - 0.0 - Partly cloudy 10 - - - -
21/06:30am 2.9 NNW 6 7 1016.6 - 0.0 - Cloudy 10 - - - -
21/06:00am 3.0 W 3 6 1016.5 - 0.0 - Mostly cloudy 10 - - - -
21/05:30am 2.1 NNW 6 8 1016.2 - 0.0 - Partly cloudy 10 - - - -
21/05:00am 2.6 N 6 8 1016.4 - 0.0 - - 10 - - - -
21/04:30am 3.2 NNW 5 7 1016.5 - 0.0 - Partly cloudy 10 - - - -
21/04:00am 3.1 N 5 7 1016.4 - 0.0 - Cloudy 10 - - - -
21/03:30am 2.7 NNW 4 6 1016.5 - 0.0 - Cloudy 10 - - - -
21/03:00am 3.4 NNW 5 7 1016.8 - 0.0 - Mostly clear 10 - - - -
21/02:30am 3.3 NNW 5 8 1017.0 - 0.0 - - 10 - - - -
21/02:00am 3.1 NNW 7 8 1017.2 - 0.0 - - 10 - - - -
21/01:30am 3.0 NNW 7 9 1017.3 - 0.0 - - 10 - - - -
21/01:00am 3.2 NNW 7 8 1017.5 - 0.0 - - 10 - - - -
21/12:30am 3.4 N 7 9 1017.7 - 0.0 - - 10 - - - -
21/12:00am 3.6 N 7 9 1018.1 - 0.0 - - 10 - - - -
 
Date/Time
EST
Temp
°C
Wind Pressure Rain since
9am
mm
Weather Cloud Vis
km
Sea
Height
m
Swell
Dir  Spd
kts
Gust
kts
hPa Trend Height
m
Period
s
Dir
20/11:30pm 4.1 NNW 6 8 1018.0 - 0.0 - - 10 - - - -
20/11:00pm 4.3 NNW 6 6 1018.0 - 0.0 - Partly cloudy 10 - - - -
20/10:30pm 4.6 N 7 8 1018.3 - 0.0 - Cloudy 10 - - - -
20/10:00pm 5.2 NW 5 7 1018.5 - 0.0 - Cloudy 10 - - - -
20/09:30pm 5.4 NNW 5 8 1018.5 - 0.0 - Partly cloudy 10 - - - -
20/09:00pm 5.5 NNW 3 7 1018.6 - 0.0 - - 10 - - - -
20/08:30pm 5.6 NNW 6 9 1018.5 - 0.0 - - 10 - - - -
20/08:00pm 5.8 NNW 6 7 1018.4 - 0.0 - - 10 - - - -
20/07:30pm 7.1 WNW 5 6 1018.2 - 0.0 - - 10 - - - -
20/07:00pm 7.2 W 4 6 1018.2 - 0.0 - - 10 - - - -
20/06:30pm 7.9 W 3 5 1018.2 - 0.0 - - 10 - - - -
20/06:00pm 8.6 SSW 3 5 1018.1 - 0.0 - Mostly clear 10 - - - -
20/05:30pm 9.2 SSE 2 5 1018.1 - 0.0 - - 10 - - - -
20/05:00pm 9.9 E 5 6 1018.1 - 0.0 - - 10 - - - -
20/04:30pm 11.7 ENE 7 10 1018.1 - 0.0 - - 10 - - - -
20/04:00pm 10.8 NE 7 10 1018.4 - 0.0 - Partly cloudy 10 - - - -
20/03:30pm 11.2 NE 9 11 1018.6 - 0.0 - Partly cloudy 10 - - - -
20/03:00pm 12.7 NNE 9 13 1018.8 - 0.0 - Mostly clear 10 - - - -
20/02:30pm 12.8 NE 9 13 1018.7 - 0.0 - - 10 - - - -
20/02:00pm 12.9 NNE 8 11 1019.0 - 0.0 - - 10 - - - -
20/01:30pm 11.9 NNE 9 13 1019.6 - 0.0 - - 10 - - - -
20/01:00pm 12.0 NNE 8 10 1020.1 - 0.0 - - 10 - - - -
20/12:30pm 12.0 N 6 7 1020.7 - 0.0 - - 10 - - - -
20/12:00pm 11.7 N 5 8 1021.4 - 0.0 - - 10 - - - -
20/11:30am 11.3 N 5 7 1021.9 - 0.0 - - 10 - - - -
20/11:00am 10.7 N 4 7 1022.4 - 0.0 - - 10 - - - -
20/10:30am 10.5 NNW 3 6 1022.7 - 0.0 - - 10 - - - -
20/10:00am 8.5 NNW 5 7 1022.9 - 0.0 - - 10 - - - -
20/09:30am 6.8 NNW 5 6 1023.2 - 0.0 - - 10 - - - -
20/09:00am 4.7 NNW 5 8 1023.4 - 0.0 Fine Partly cloudy 25 - - - -
20/08:30am 3.5 NNW 6 7 1023.3 - 0.0 - - 10 - - - -
20/08:00am 1.7 NNW 8 10 1023.5 - 0.0 - - 10 - - - -
20/07:30am 0.8 NNW 7 10 1023.4 - 0.0 - - 10 - - - -
20/07:00am 0.7 NW 7 8 1023.2 - 0.0 - - 10 - - - -
20/06:30am 0.8 NW 5 7 1023.1 - 0.0 - - 10 - - - -
20/06:00am 1.0 NW 7 8 1023.2 - 0.0 - - 10 - - - -
20/05:30am 0.6 NW 6 8 1023.2 - 0.0 - - 10 - - - -
20/05:00am 0.6 NW 7 8 1022.9 - 0.0 - - 10 - - - -
20/04:30am 0.9 NW 4 6 1023.0 - 0.0 - - 10 - - - -
20/04:00am 0.9 NW 6 9 1023.0 - 0.0 - - 10 - - - -
20/03:30am 0.7 WNW 5 6 1023.0 - 0.0 - - 10 - - - -
20/03:00am 1.2 NW 6 7 1023.1 - 0.0 - - 10 - - - -
20/02:30am 1.4 NNW 7 8 1023.2 - 0.0 - - 10 - - - -
20/02:00am 1.7 NNW 8 9 1023.2 - 0.0 - - 10 - - - -
20/01:30am 1.8 NW 7 9 1023.2 - 0.0 - - 10 - - - -
20/01:00am 2.5 NW 7 8 1023.2 - 0.0 - - 10 - - - -
20/12:30am 2.6 NW 7 8 1023.4 - 0.0 - - 10 - - - -
20/12:00am 2.4 NNW 6 9 1023.5 - 0.0 - - 10 - - - -
 
Date/Time
EST
Temp
°C
Wind Pressure Rain since
9am
mm
Weather Cloud Vis
km
Sea
Height
m
Swell
Dir  Spd
kts
Gust
kts
hPa Trend Height
m
Period
s
Dir
19/11:30pm 2.6 NNW 7 9 1023.5 - 0.0 - - 10 - - - -
19/11:00pm 2.6 NNW 7 9 1023.4 - 0.0 - - 10 - - - -
19/10:30pm 2.8 NW 5 7 1023.6 - 0.0 - - 10 - - - -
19/10:00pm 3.2 NW 6 8 1023.8 - 0.0 - - 10 - - - -
19/09:30pm 3.5 NW 6 7 1023.6 - 0.0 - - 10 - - - -
19/09:00pm 3.5 CALM 0 0 1023.6 - 0.0 - - 10 - - - -
19/08:30pm 4.3 N 6 7 1023.5 - 0.0 - - 10 - - - -
19/08:00pm 4.6 NNW 3 5 1023.4 - 0.0 - - 10 - - - -
19/07:30pm 5.7 NW 3 6 1023.2 - 0.0 - - 10 - - - -
19/07:00pm 6.4 SSW 5 6 1023.3 - 0.0 - - 10 - - - -
19/06:30pm 7.4 SW 4 6 1023.2 - 0.0 - - 10 - - - -
19/06:00pm 8.5 SW 6 10 1023.1 - 0.0 - Partly cloudy 10 - - - -
19/05:30pm 9.5 SW 7 13 1022.7 - 0.0 - Partly cloudy 10 - - - -
19/05:00pm 10.3 SW 6 11 1022.4 - 0.0 - Partly cloudy 10 - - - -
19/04:30pm 11.6 SW 8 14 1022.1 - 0.0 - Partly cloudy 10 - - - -
19/04:00pm 12.0 SW 9 18 1021.9 - 0.0 - Cloudy 10 - - - -
19/03:30pm 12.3 SW 10 16 1021.7 - 0.0 - Partly cloudy 10 - - - -
19/03:00pm 12.2 SW 9 16 1021.7 - 0.0 - Mostly clear 10 - - - -
19/02:30pm 12.1 SW 10 15 1021.5 - 0.0 - Partly cloudy 10 - - - -
19/02:00pm 11.8 SW 9 16 1021.5 - 0.0 - Partly cloudy 10 - - - -
19/01:30pm 11.7 SSW 9 17 1021.4 - 0.0 - - 10 - - - -

Other Formats:

Comma delimited format used in spreadsheet applications
http://www.bom.gov.au/fwo/IDT60701/IDT60701.95981.axf

JavaScript Object Notation format (JSON) in row-major order
http://www.bom.gov.au/fwo/IDT60701/IDT60701.95981.json